This is the latest recevied weather packets stored in our database for station/object DL8TF-13. If no packets are shown the sender has not sent any weather packets the latest 10 day(s).
| Time | Temp. | Humidity | Pressure | Rain* | Wind** | Luminosity | Snow |
|---|---|---|---|---|---|---|---|
| 1778153667 | 15.56° C | 57% | 983 hPa | - | - | - | - |
| 1778153067 | 16.11° C | 54% | 983 hPa | - | - | - | - |
| 1778152467 | 16.67° C | 55% | 983 hPa | - | - | - | - |
| 1778151867 | 16.11° C | 58% | 983 hPa | - | - | - | - |
| 1778151267 | 15° C | 67% | 983 hPa | - | - | - | - |
| 1778150667 | 13.89° C | 68% | 983 hPa | - | - | - | - |
| 1778150067 | 13.89° C | 67% | 983 hPa | - | - | - | - |
| 1778149467 | 15° C | 66% | 983 hPa | - | - | - | - |
| 1778148867 | 15.56° C | 64% | 983 hPa | - | - | - | - |
| 1778148267 | 14.44° C | 74% | 983 hPa | - | - | - | - |
| 1778147667 | 14.44° C | 77% | 983 hPa | - | - | - | - |
| 1778147067 | 14.44° C | 83% | 983 hPa | - | - | - | - |
| 1778146467 | 12.78° C | 94% | 983 hPa | - | - | - | - |
| 1778145867 | 12.78° C | 92% | 983 hPa | - | - | - | - |
| 1778145267 | 12.78° C | 90% | 983 hPa | - | - | - | - |
| 1778144667 | 12.22° C | 97% | 983 hPa | - | - | - | - |
| 1778144067 | 12.22° C | 96% | 983 hPa | - | - | - | - |
| 1778143466 | 12.22° C | 95% | 983 hPa | - | - | - | - |
| 1778142866 | 12.22° C | 93% | 983 hPa | - | - | - | - |
| 1778142266 | 12.22° C | 97% | 983 hPa | - | - | - | - |
| 1778141666 | 11.67° C | 98% | 983 hPa | - | - | - | - |
| 1778141066 | 11.67° C | 96% | 982 hPa | - | - | - | - |
| 1778140466 | 11.67° C | 97% | 982 hPa | - | - | - | - |
| 1778139866 | 11.67° C | 99% | 982 hPa | - | - | - | - |
| 1778139266 | 11.67° C | 100% | 982 hPa | - | - | - | - |
* Rain since midnight (hover to see other rain measurements)
** Current wind speed in m/s (hover to see current wind gust speed)